createdAt,value
2018-08-20T00:01:35.769Z,1.40
2018-08-20T00:04:07.296Z,1.30
2018-08-20T00:06:48.942Z,1.37
2018-08-20T00:09:18.755Z,1.80
2018-08-20T00:11:48.465Z,1.50
2018-08-20T00:14:19.441Z,1.20
2018-08-20T00:16:48.320Z,1.70
2018-08-20T00:19:17.274Z,1.27
2018-08-20T00:21:46.271Z,1.40
2018-08-20T00:24:14.905Z,1.60
2018-08-20T00:26:43.659Z,1.50
2018-08-20T00:29:12.701Z,1.40
2018-08-20T00:31:41.615Z,1.60
2018-08-20T00:34:10.487Z,1.70
2018-08-20T00:36:39.157Z,1.40
2018-08-20T00:39:09.891Z,1.43
2018-08-20T00:41:38.620Z,1.50
2018-08-20T00:44:11.356Z,1.20
2018-08-20T00:46:40.408Z,1.50
2018-08-20T00:49:09.287Z,1.47
2018-08-20T00:51:38.041Z,1.30
2018-08-20T00:54:06.947Z,1.30
2018-08-20T00:56:35.894Z,1.60
2018-08-20T00:59:04.860Z,1.47
2018-08-20T01:01:33.911Z,1.10
2018-08-20T01:04:03.167Z,1.33
2018-08-20T01:06:32.317Z,1.50
2018-08-20T01:09:01.200Z,1.57
2018-08-20T01:11:30.021Z,1.93
2018-08-20T01:13:58.992Z,1.30
2018-08-20T01:16:27.688Z,1.50
2018-08-20T01:18:56.505Z,1.50
2018-08-20T01:21:25.418Z,1.30
2018-08-20T01:23:54.518Z,1.10
2018-08-20T01:26:23.089Z,1.40
2018-08-20T01:28:51.753Z,1.10
2018-08-20T01:31:20.996Z,1.10
2018-08-20T01:33:49.857Z,1.37
2018-08-20T01:36:18.564Z,1.43
2018-08-20T01:38:47.311Z,1.30
2018-08-20T01:41:16.058Z,1.40
2018-08-20T01:43:45.141Z,1.20
2018-08-20T01:46:14.009Z,1.10
2018-08-20T01:48:42.741Z,1.20
2018-08-20T01:51:12.674Z,0.80
2018-08-20T01:53:41.414Z,1.33
2018-08-20T01:56:10.442Z,1.30
2018-08-20T01:58:39.576Z,1.30
2018-08-20T02:01:08.534Z,1.30
2018-08-20T02:03:37.450Z,1.10
2018-08-20T02:06:06.393Z,1.10
2018-08-20T02:08:35.119Z,1.20
2018-08-20T02:11:03.828Z,1.03
2018-08-20T02:13:32.792Z,1.27
2018-08-20T02:16:01.743Z,1.47
2018-08-20T02:18:30.537Z,1.37
2018-08-20T02:20:59.675Z,1.10
2018-08-20T02:23:28.570Z,1.30
2018-08-20T02:25:57.313Z,1.17
2018-08-20T02:28:26.252Z,1.33
2018-08-20T02:30:55.487Z,1.30
2018-08-20T02:33:24.300Z,1.40
2018-08-20T02:35:52.920Z,1.50
2018-08-20T02:38:21.701Z,1.30
2018-08-20T02:40:50.669Z,1.53
2018-08-20T02:43:19.304Z,1.80
2018-08-20T02:45:48.136Z,1.40
2018-08-20T02:48:16.835Z,1.47
2018-08-20T02:50:45.525Z,1.50
2018-08-20T02:53:14.723Z,1.53
2018-08-20T02:55:43.511Z,1.80
2018-08-20T02:58:12.529Z,1.50
2018-08-20T03:00:41.869Z,1.63
2018-08-20T03:03:10.510Z,1.80
2018-08-20T03:05:39.195Z,1.60
2018-08-20T03:08:08.138Z,1.63
2018-08-20T03:10:36.736Z,1.67
2018-08-20T03:13:05.776Z,2.03
2018-08-20T03:15:34.637Z,1.70
2018-08-20T03:18:03.831Z,1.70
2018-08-20T03:20:32.745Z,1.90
2018-08-20T03:23:01.496Z,2.10
2018-08-20T03:25:30.270Z,2.20
2018-08-20T03:27:59.139Z,2.13
2018-08-20T03:30:27.912Z,1.60
2018-08-20T03:32:56.757Z,1.60
2018-08-20T03:35:25.560Z,1.90
2018-08-20T03:37:54.203Z,1.70
2018-08-20T03:40:22.799Z,1.60
2018-08-20T03:42:51.542Z,1.80
2018-08-20T03:45:20.277Z,2.17
2018-08-20T03:47:49.128Z,2.00
2018-08-20T03:50:17.896Z,2.30
2018-08-20T03:52:46.912Z,2.00
2018-08-20T03:55:15.731Z,1.87
2018-08-20T03:57:44.799Z,1.80
2018-08-20T04:00:24.032Z,2.20
2018-08-20T04:02:53.244Z,2.10
2018-08-20T04:05:22.663Z,2.13
2018-08-20T04:07:51.542Z,2.40
2018-08-20T04:10:20.526Z,1.93
2018-08-20T04:12:49.352Z,2.30
2018-08-20T04:15:18.216Z,2.33
2018-08-20T04:17:46.977Z,2.00
2018-08-20T04:20:15.739Z,2.20
2018-08-20T04:22:44.448Z,2.60
2018-08-20T04:25:13.376Z,2.47
2018-08-20T04:27:42.361Z,2.10
2018-08-20T04:30:11.194Z,2.67
2018-08-20T04:32:40.303Z,2.10
2018-08-20T04:35:09.193Z,2.60
2018-08-20T04:37:37.926Z,2.37
2018-08-20T04:40:07.274Z,2.43
2018-08-20T04:42:36.407Z,2.30
2018-08-20T04:45:05.525Z,2.37
2018-08-20T04:47:34.840Z,2.30
2018-08-20T04:50:04.328Z,2.50
2018-08-20T04:52:32.915Z,2.43
2018-08-20T04:55:01.924Z,2.40
2018-08-20T04:57:30.757Z,2.60
2018-08-20T04:59:59.500Z,2.30
2018-08-20T05:02:28.552Z,2.37
2018-08-20T05:04:57.356Z,2.47
2018-08-20T05:07:26.278Z,2.00
2018-08-20T05:09:55.314Z,2.10
2018-08-20T05:12:23.993Z,1.90
2018-08-20T05:14:52.888Z,2.40
2018-08-20T05:17:21.668Z,2.43
2018-08-20T05:19:50.415Z,1.80
2018-08-20T05:22:19.396Z,2.30
2018-08-20T05:24:48.189Z,2.03
2018-08-20T05:27:17.102Z,2.03
2018-08-20T05:29:45.861Z,2.00
2018-08-20T05:32:14.520Z,2.90
2018-08-20T05:34:43.294Z,4.80
2018-08-20T05:37:12.021Z,3.50
2018-08-20T05:39:40.889Z,2.27
2018-08-20T05:42:09.739Z,2.37
2018-08-20T05:44:38.624Z,2.00
2018-08-20T05:47:07.419Z,2.30
2018-08-20T05:49:36.120Z,1.80
2018-08-20T05:52:05.041Z,2.10
2018-08-20T05:54:33.852Z,2.07
2018-08-20T05:57:02.739Z,1.90
2018-08-20T05:59:31.441Z,2.00
2018-08-20T06:02:00.139Z,2.27
2018-08-20T06:04:29.066Z,2.20
2018-08-20T06:06:57.824Z,1.90
2018-08-20T06:09:26.673Z,2.13
2018-08-20T06:11:55.322Z,1.80
2018-08-20T06:14:24.106Z,1.50
2018-08-20T06:16:52.902Z,1.87
2018-08-20T06:19:21.787Z,1.63
2018-08-20T06:21:50.514Z,1.80
2018-08-20T06:24:19.881Z,1.63
2018-08-20T06:26:48.634Z,1.77
2018-08-20T06:29:17.585Z,1.80
2018-08-20T06:31:46.417Z,1.87
2018-08-20T06:34:15.288Z,1.60
2018-08-20T06:36:44.248Z,2.37
2018-08-20T06:39:12.937Z,1.90
2018-08-20T06:41:41.810Z,2.10
2018-08-20T06:44:10.687Z,1.03
2018-08-20T06:46:39.462Z,1.67
2018-08-20T06:49:09.458Z,1.53
2018-08-20T06:51:38.628Z,1.50
2018-08-20T06:54:07.743Z,1.40
2018-08-20T06:56:36.651Z,1.60
2018-08-20T06:59:05.400Z,1.40
2018-08-20T07:01:34.212Z,1.53
2018-08-20T07:04:03.205Z,1.40
2018-08-20T07:06:32.009Z,1.57
2018-08-20T07:09:01.300Z,1.30
2018-08-20T07:11:30.063Z,1.10
2018-08-20T07:13:59.111Z,1.03
2018-08-20T07:16:27.867Z,1.10
2018-08-20T07:18:56.678Z,1.07
2018-08-20T07:21:25.330Z,1.03
2018-08-20T07:23:54.124Z,0.90
2018-08-20T07:26:23.056Z,1.30
2018-08-20T07:28:51.905Z,1.30
2018-08-20T07:31:20.918Z,1.10
2018-08-20T07:33:49.927Z,1.13
2018-08-20T07:36:18.667Z,1.00
2018-08-20T07:38:47.468Z,0.70
2018-08-20T07:41:16.259Z,0.90
2018-08-20T07:43:45.113Z,1.07
2018-08-20T07:46:14.011Z,0.80
2018-08-20T07:48:42.816Z,0.77
2018-08-20T07:51:11.642Z,0.67
2018-08-20T07:53:40.761Z,0.90
2018-08-20T07:56:09.459Z,0.90
2018-08-20T07:58:38.254Z,0.83
2018-08-20T08:01:06.961Z,1.00
2018-08-20T08:03:35.974Z,1.00
2018-08-20T08:06:05.663Z,0.80
2018-08-20T08:08:34.945Z,1.20
2018-08-20T08:11:03.896Z,0.60
2018-08-20T08:13:32.662Z,0.70
2018-08-20T08:16:01.463Z,0.90
2018-08-20T08:18:30.258Z,0.87
2018-08-20T08:20:59.636Z,0.80
2018-08-20T08:23:28.470Z,0.90
2018-08-20T08:25:57.457Z,0.80
2018-08-20T08:28:26.386Z,0.80
2018-08-20T08:30:55.434Z,0.70
2018-08-20T08:33:24.263Z,0.70
2018-08-20T08:35:53.117Z,0.80
2018-08-20T08:38:21.997Z,0.83
2018-08-20T08:40:50.857Z,0.87
2018-08-20T08:43:19.694Z,0.80
2018-08-20T08:45:48.533Z,0.97
2018-08-20T08:48:17.379Z,0.70
2018-08-20T08:50:46.106Z,0.63
2018-08-20T08:53:14.738Z,0.53
2018-08-20T08:55:43.389Z,0.70
2018-08-20T08:58:12.096Z,0.70
2018-08-20T09:00:41.241Z,0.80
2018-08-20T09:03:10.018Z,0.80
2018-08-20T09:05:38.960Z,0.70
2018-08-20T09:08:07.967Z,0.70
2018-08-20T09:10:36.793Z,1.00
2018-08-20T09:13:05.485Z,0.60
2018-08-20T09:15:34.594Z,0.53
2018-08-20T09:18:03.371Z,0.90
2018-08-20T09:20:32.291Z,1.00
2018-08-20T09:23:01.082Z,0.70
2018-08-20T09:25:30.134Z,0.87
2018-08-20T09:27:59.142Z,0.90
2018-08-20T09:30:28.066Z,0.60
2018-08-20T09:32:57.047Z,0.60
2018-08-20T09:35:25.832Z,0.80
2018-08-20T09:37:54.893Z,0.50
2018-08-20T09:40:23.641Z,0.53
2018-08-20T09:42:52.710Z,0.70
2018-08-20T09:45:21.779Z,0.57
2018-08-20T09:47:50.592Z,0.67
2018-08-20T09:50:19.424Z,0.60
2018-08-20T09:52:48.076Z,0.50
2018-08-20T09:55:16.832Z,0.47
2018-08-20T09:57:45.583Z,0.50
2018-08-20T10:00:21.558Z,0.50
2018-08-20T10:02:51.308Z,0.63
2018-08-20T10:05:20.491Z,0.60
2018-08-20T10:07:49.789Z,0.70
2018-08-20T10:10:18.719Z,0.70
2018-08-20T10:12:47.673Z,0.60
2018-08-20T10:15:16.397Z,0.77
2018-08-20T10:17:45.503Z,0.60
2018-08-20T10:20:15.402Z,0.70
2018-08-20T10:22:44.530Z,0.50
2018-08-20T10:25:13.540Z,1.00
2018-08-20T10:27:42.326Z,0.70
2018-08-20T10:30:12.048Z,0.60
2018-08-20T10:32:41.439Z,0.70
2018-08-20T10:35:10.518Z,1.03
2018-08-20T10:37:39.391Z,0.67
2018-08-20T10:40:09.076Z,0.67
2018-08-20T10:42:38.649Z,0.70
2018-08-20T10:45:20.837Z,0.60
2018-08-20T10:47:50.323Z,0.60
2018-08-20T10:50:20.495Z,0.70
2018-08-20T10:52:50.605Z,0.67
2018-08-20T10:55:19.282Z,0.57
2018-08-20T10:57:48.037Z,0.50
2018-08-20T11:00:17.111Z,0.70
2018-08-20T11:02:46.062Z,0.60
2018-08-20T11:05:16.766Z,0.80
2018-08-20T11:07:45.623Z,0.70
2018-08-20T11:10:14.465Z,0.70
2018-08-20T11:12:43.157Z,0.80
2018-08-20T11:15:12.384Z,1.10
2018-08-20T11:17:41.106Z,0.80
2018-08-20T11:20:12.434Z,0.83
2018-08-20T11:22:41.770Z,1.07
2018-08-20T11:25:11.489Z,0.60
2018-08-20T11:27:40.826Z,0.90
2018-08-20T11:30:11.298Z,0.93
2018-08-20T11:32:40.289Z,0.60
2018-08-20T11:35:09.906Z,0.70
2018-08-20T11:37:38.869Z,1.10
2018-08-20T11:40:08.309Z,0.80
2018-08-20T11:42:37.287Z,0.83
2018-08-20T11:45:07.439Z,0.90
2018-08-20T11:47:36.538Z,1.10
2018-08-20T11:50:05.466Z,1.00
2018-08-20T11:52:34.250Z,1.43
2018-08-20T11:55:03.033Z,0.90
2018-08-20T11:57:32.047Z,0.90
2018-08-20T12:00:01.256Z,0.80
2018-08-20T12:02:31.142Z,0.87
2018-08-20T12:05:00.064Z,1.20
2018-08-20T12:07:28.829Z,1.00
2018-08-20T12:09:57.782Z,1.10
2018-08-20T12:12:26.689Z,1.20
2018-08-20T12:14:55.744Z,0.80
2018-08-20T12:17:24.577Z,0.97
2018-08-20T12:19:53.271Z,1.07
2018-08-20T12:22:21.998Z,0.93
2018-08-20T12:24:50.860Z,1.10
2018-08-20T12:27:19.615Z,0.60
2018-08-20T12:29:48.491Z,0.80
2018-08-20T12:32:17.224Z,1.07
2018-08-20T12:34:46.138Z,0.70
2018-08-20T12:37:15.168Z,0.70
2018-08-20T12:39:43.954Z,0.83
2018-08-20T12:42:12.825Z,1.00
2018-08-20T12:44:41.781Z,0.60
2018-08-20T12:47:10.562Z,1.10
2018-08-20T12:49:39.504Z,1.53
2018-08-20T12:52:08.687Z,0.87
2018-08-20T12:54:37.820Z,0.90
2018-08-20T12:57:06.478Z,0.97
2018-08-20T12:59:35.267Z,2.10
2018-08-20T13:02:04.133Z,0.90
2018-08-20T13:04:32.893Z,0.90
2018-08-20T13:07:01.924Z,1.10
2018-08-20T13:09:30.845Z,0.97
2018-08-20T13:11:59.675Z,1.33
2018-08-20T13:14:28.900Z,1.10
2018-08-20T13:16:57.785Z,0.80
2018-08-20T13:19:26.464Z,0.70
2018-08-20T13:21:55.532Z,0.87
2018-08-20T13:24:24.714Z,0.70
2018-08-20T13:26:53.426Z,0.80
2018-08-20T13:29:22.245Z,1.00
2018-08-20T13:31:51.424Z,1.00
2018-08-20T13:34:20.157Z,1.00
2018-08-20T13:36:51.787Z,0.90
2018-08-20T13:39:20.754Z,0.80
2018-08-20T13:41:49.541Z,0.67
2018-08-20T13:44:18.411Z,1.00
2018-08-20T13:46:47.335Z,1.00
2018-08-20T13:49:16.253Z,1.10
2018-08-20T13:51:45.058Z,0.80
2018-08-20T13:54:13.973Z,0.70
2018-08-20T13:56:42.828Z,0.70
2018-08-20T13:59:11.877Z,0.63
2018-08-20T14:01:40.941Z,0.67
2018-08-20T14:04:09.814Z,0.80
2018-08-20T14:06:38.607Z,0.67
2018-08-20T14:09:09.726Z,0.60
2018-08-20T14:11:38.548Z,0.80
2018-08-20T14:14:08.082Z,0.70
2018-08-20T14:16:37.591Z,0.67
2018-08-20T14:19:06.498Z,0.90
2018-08-20T14:21:35.169Z,0.90
2018-08-20T14:24:04.168Z,0.70
2018-08-20T14:26:33.180Z,0.70
2018-08-20T14:29:02.081Z,0.77
2018-08-20T14:31:31.161Z,0.73
2018-08-20T14:33:59.992Z,0.87
2018-08-20T14:36:28.908Z,0.70
2018-08-20T14:38:58.256Z,0.67
2018-08-20T14:41:27.057Z,0.90
2018-08-20T14:43:55.981Z,0.50
2018-08-20T14:46:24.866Z,0.70
2018-08-20T14:48:54.047Z,0.50
2018-08-20T14:51:23.286Z,0.60
2018-08-20T14:53:52.069Z,0.60
2018-08-20T14:56:21.123Z,0.50
2018-08-20T14:58:50.018Z,1.23
2018-08-20T15:01:18.892Z,0.50
2018-08-20T15:03:47.617Z,0.70
2018-08-20T15:06:16.431Z,0.80
2018-08-20T15:08:45.313Z,1.03
2018-08-20T15:11:14.044Z,0.50
2018-08-20T15:13:42.946Z,0.80
2018-08-20T15:16:11.575Z,0.83
2018-08-20T15:18:40.261Z,0.70
2018-08-20T15:21:09.160Z,0.50
2018-08-20T15:23:37.869Z,0.50
2018-08-20T15:26:06.742Z,0.70
2018-08-20T15:28:35.809Z,0.70
2018-08-20T15:31:04.809Z,0.73
2018-08-20T15:33:34.359Z,0.90
2018-08-20T15:36:03.338Z,0.83
2018-08-20T15:38:32.430Z,0.70
2018-08-20T15:41:01.256Z,1.00
2018-08-20T15:43:29.987Z,0.73
2018-08-20T15:45:58.747Z,0.70
2018-08-20T15:48:27.532Z,0.90
2018-08-20T15:50:56.281Z,0.97
2018-08-20T15:53:25.180Z,0.80
2018-08-20T15:55:54.041Z,0.50
2018-08-20T15:58:22.758Z,0.70
2018-08-20T16:00:51.589Z,0.80
2018-08-20T16:03:20.431Z,0.60
2018-08-20T16:05:49.259Z,0.50
2018-08-20T16:08:18.216Z,1.20
2018-08-20T16:10:46.989Z,0.70
2018-08-20T16:13:15.767Z,1.00
2018-08-20T16:15:44.511Z,0.80
2018-08-20T16:18:13.200Z,0.93
2018-08-20T16:20:41.986Z,0.87
2018-08-20T16:23:11.094Z,0.80
2018-08-20T16:25:40.026Z,0.70
2018-08-20T16:28:14.378Z,0.97
2018-08-20T16:30:43.115Z,1.00
2018-08-20T16:33:11.999Z,0.83
2018-08-20T16:35:40.789Z,0.87
2018-08-20T16:38:09.836Z,0.80
2018-08-20T16:40:38.561Z,0.73
2018-08-20T16:43:10.059Z,0.90
2018-08-20T16:45:39.049Z,0.83
2018-08-20T16:48:07.863Z,0.70
2018-08-20T16:50:36.888Z,0.90
2018-08-20T16:53:06.175Z,0.70
2018-08-20T16:55:35.583Z,0.83
2018-08-20T16:58:04.475Z,0.70
2018-08-20T17:00:33.251Z,0.80
2018-08-20T17:03:02.107Z,0.97
2018-08-20T17:05:35.631Z,0.80
2018-08-20T17:08:04.401Z,0.90
2018-08-20T17:10:33.418Z,0.90
2018-08-20T17:13:02.667Z,0.90
2018-08-20T17:15:31.521Z,0.97
2018-08-20T17:18:00.624Z,0.83
2018-08-20T17:20:29.432Z,0.97
2018-08-20T17:23:10.545Z,1.00
2018-08-20T17:25:40.088Z,1.20
2018-08-20T17:28:08.836Z,1.20
2018-08-20T17:30:37.847Z,0.80
2018-08-20T17:33:08.714Z,1.30
2018-08-20T17:35:41.439Z,1.07
2018-08-20T17:38:10.353Z,0.83
2018-08-20T17:40:40.580Z,1.10
2018-08-20T17:43:10.187Z,1.10
2018-08-20T17:45:39.165Z,0.90
2018-08-20T17:48:16.633Z,1.10
2018-08-20T17:50:45.643Z,0.93
2018-08-20T17:53:14.621Z,1.10
2018-08-20T17:55:43.620Z,0.90
2018-08-20T17:58:12.313Z,1.10
2018-08-20T18:00:53.627Z,0.70
2018-08-20T18:03:27.441Z,0.90
2018-08-20T18:05:58.780Z,1.20
2018-08-20T18:08:28.989Z,0.90
2018-08-20T18:10:57.973Z,1.07
2018-08-20T18:13:39.506Z,0.90
2018-08-20T18:16:10.122Z,1.10
2018-08-20T18:18:40.073Z,0.73
2018-08-20T18:21:09.075Z,1.30
2018-08-20T18:23:38.548Z,0.80
2018-08-20T18:26:07.634Z,1.37
2018-08-20T18:28:42.337Z,1.13
2018-08-20T18:31:13.405Z,0.97
2018-08-20T18:33:43.573Z,1.17
2018-08-20T18:36:15.197Z,0.97
2018-08-20T18:38:50.707Z,0.90
2018-08-20T18:41:20.715Z,1.20
2018-08-20T18:43:49.462Z,1.30
2018-08-20T18:46:18.321Z,1.00
2018-08-20T18:48:46.981Z,0.90
2018-08-20T18:51:16.829Z,1.07
2018-08-20T18:53:45.724Z,1.30
2018-08-20T18:56:17.580Z,1.40
2018-08-20T18:58:46.831Z,0.93
2018-08-20T19:01:15.644Z,0.90
2018-08-20T19:03:46.079Z,1.07
2018-08-20T19:06:15.537Z,0.83
2018-08-20T19:08:44.479Z,1.20
2018-08-20T19:11:13.777Z,1.23
2018-08-20T19:13:43.601Z,1.10
2018-08-20T19:16:27.436Z,1.07
2018-08-20T19:18:56.716Z,1.03
2018-08-20T19:21:27.550Z,1.20
2018-08-20T19:23:57.797Z,1.03
2018-08-20T19:26:27.607Z,1.30
2018-08-20T19:28:56.607Z,1.50
2018-08-20T19:31:25.578Z,1.03
2018-08-20T19:33:54.699Z,1.40
2018-08-20T19:36:23.509Z,1.20
2018-08-20T19:38:52.254Z,1.00
2018-08-20T19:41:21.341Z,1.10
2018-08-20T19:43:52.111Z,0.90
2018-08-20T19:46:27.326Z,0.90
2018-08-20T19:49:01.555Z,1.13
2018-08-20T19:51:32.252Z,1.33
2018-08-20T19:54:01.168Z,1.67
2018-08-20T19:56:30.156Z,1.20
2018-08-20T19:58:59.051Z,1.30
2018-08-20T20:01:27.816Z,1.00
2018-08-20T20:03:59.565Z,0.93
2018-08-20T20:06:28.352Z,1.20
2018-08-20T20:08:57.287Z,1.40
2018-08-20T20:11:28.282Z,1.67
2018-08-20T20:13:59.354Z,1.10
2018-08-20T20:16:32.663Z,1.40
2018-08-20T20:19:01.494Z,1.30
2018-08-20T20:21:30.373Z,1.50
2018-08-20T20:23:59.140Z,1.23
2018-08-20T20:26:28.059Z,1.13
2018-08-20T20:28:57.230Z,1.00
2018-08-20T20:31:26.022Z,0.90
2018-08-20T20:33:55.085Z,1.00
2018-08-20T20:36:29.468Z,1.03
2018-08-20T20:38:58.483Z,1.07
2018-08-20T20:41:27.171Z,0.73
2018-08-20T20:43:56.125Z,1.40
2018-08-20T20:46:24.965Z,0.93
2018-08-20T20:48:54.200Z,0.97
2018-08-20T20:51:22.995Z,0.63
2018-08-20T20:53:51.758Z,0.60
2018-08-20T20:56:20.693Z,0.67
2018-08-20T20:58:49.858Z,0.63
2018-08-20T21:01:18.850Z,0.80
2018-08-20T21:03:47.707Z,0.70
2018-08-20T21:06:16.411Z,0.80
2018-08-20T21:08:47.889Z,0.70
2018-08-20T21:11:17.913Z,0.40
2018-08-20T21:13:47.164Z,0.60
2018-08-20T21:16:17.080Z,0.80
2018-08-20T21:18:51.906Z,0.70
2018-08-20T21:21:21.026Z,0.60
2018-08-20T21:23:49.831Z,0.80
2018-08-20T21:26:18.735Z,0.97
2018-08-20T21:28:48.851Z,1.33
2018-08-20T21:31:18.943Z,0.93
2018-08-20T21:33:48.165Z,1.00
2018-08-20T21:36:17.573Z,1.30
2018-08-20T21:38:46.591Z,0.80
2018-08-20T21:41:15.529Z,0.80
2018-08-20T21:43:47.313Z,0.70
2018-08-20T21:46:16.754Z,0.80
2018-08-20T21:48:45.857Z,0.70
2018-08-20T21:51:22.162Z,0.63
2018-08-20T21:53:51.116Z,0.60
2018-08-20T21:56:20.205Z,0.40
2018-08-20T21:58:49.388Z,0.80
2018-08-20T22:01:18.878Z,0.60
2018-08-20T22:03:47.778Z,0.83
2018-08-20T22:06:16.643Z,0.60
2018-08-20T22:08:45.392Z,0.50
2018-08-20T22:11:14.140Z,0.57
2018-08-20T22:13:43.072Z,0.60
2018-08-20T22:16:16.997Z,0.70
2018-08-20T22:18:47.488Z,0.60
2018-08-20T22:21:17.629Z,0.70
2018-08-20T22:23:47.306Z,0.33
2018-08-20T22:26:18.540Z,0.60
2018-08-20T22:28:50.870Z,0.37
2018-08-20T22:31:20.855Z,0.40
2018-08-20T22:33:55.761Z,0.60
2018-08-20T22:36:25.283Z,0.30
2018-08-20T22:38:56.431Z,0.50
2018-08-20T22:41:26.519Z,0.40
2018-08-20T22:43:55.382Z,0.50
2018-08-20T22:46:24.898Z,0.70
2018-08-20T22:48:56.261Z,0.50
2018-08-20T22:51:25.793Z,0.60
2018-08-20T22:53:55.974Z,0.60
2018-08-20T22:56:31.668Z,0.50
2018-08-20T22:59:02.284Z,0.50
2018-08-20T23:01:31.343Z,0.50
2018-08-20T23:04:00.069Z,0.50
2018-08-20T23:06:28.710Z,0.60
2018-08-20T23:08:58.605Z,0.60
2018-08-20T23:11:42.770Z,0.60
2018-08-20T23:14:12.664Z,0.43
2018-08-20T23:16:41.911Z,0.60
2018-08-20T23:19:11.332Z,0.53
2018-08-20T23:21:42.187Z,0.40
2018-08-20T23:24:11.997Z,0.50
2018-08-20T23:26:40.864Z,0.73
2018-08-20T23:29:10.309Z,0.53
2018-08-20T23:31:39.507Z,0.40
2018-08-20T23:34:09.198Z,0.50
2018-08-20T23:36:38.194Z,0.50
2018-08-20T23:39:09.161Z,0.60
2018-08-20T23:41:38.331Z,0.50
2018-08-20T23:44:07.291Z,0.60
2018-08-20T23:46:44.856Z,0.40
2018-08-20T23:49:14.007Z,0.60
2018-08-20T23:51:42.803Z,0.40
2018-08-20T23:54:12.519Z,0.50
2018-08-20T23:56:41.382Z,0.50
2018-08-20T23:59:11.171Z,0.53
